Seven Corners, Virginia
Current Conditions -  °F | °C
As of 9:52 PM on Monday 20 Oct 2014 (Local Time) from KDCA Reporting Station
Broken Clouds Broken Clouds  
Wind Chill: 61°   Ceiling: 13000
Heat Index: 61°   Visibility: 10mi
Dew Point: 46°   Wind: 7mph
Humidity: 58%   Direction: 190°S
Pressure: 29.97"   Gusts: NA
Location:  38.8591°N, 77.1567°W
Report Text: KDCA 210152Z 19006KT 10SM BKN130 16/08 A2997 RMK AO2 SLP148 T01610078
Loading
Personal Weather Stations






























Interactive Weather Map
Tropical Storm Tracking
New forecast layout! Learn more

10-Day Weather Forecast

Advertisements
Track Severe Weather on mobile